DeLand, FL (32720)

8:41 PM EDT on August 31, 2015 (GMT -0400)
College Park | | Change Station
CLOSE
Current Station
Personal Weather Station
Location: DeLand, FL
Elevation: 131 ft
Nearby Weather Stations

Elev 131 ft 29.04 °N, 81.30 °W | Updated 13 minutes ago

Rain
Rain
77.9 °F
Feels Like 80 °F
N
0.0
Wind Variable Wind from ENE

Today
High -- | Low -- °F
--% Chance of Precip.
Yesterday
High -- | Low -- °F
Precip. -- in
7:02 AM 7:48 PM
Waning Gibbous, 92% visible
Pressure 30.06 in
Visibility 3.0 miles
Clouds Scattered Clouds 2200 ft
Mostly Cloudy 3600 ft
Mostly Cloudy 5000 ft
Heat Index 80 °F
Dew Point 78 °F
Humidity 99%
Rainfall 0.65 in
Snow Depth Not available.
UV 0 out of 12
Pollen 1.80 out of 12
Air Quality Not available.
Flu Activity Not available.
SPECI KSFB 010012Z 18009G19KT 3SM TSRA BR SCT022 BKN036 BKN050 24/23 A3006 RMK AO2 LTG DSNT SE-SW RAB2358 TSB06 P0006 T02440228
Pressure 30.06 in
Visibility 3.0 miles
Clouds Scattered Clouds 2200 ft
Mostly Cloudy 3600 ft
Mostly Cloudy 5000 ft
Heat Index 80 °F
Dew Point 78 °F
Humidity 99%
Rainfall 0.65 in
Snow Depth Not available.
UV 0 out of 12
Pollen 1.80 out of 12
Air Quality Not available.
Flu Activity Not available.
SPECI KSFB 010012Z 18009G19KT 3SM TSRA BR SCT022 BKN036 BKN050 24/23 A3006 RMK AO2 LTG DSNT SE-SW RAB2358 TSB06 P0006 T02440228

10-Day Weather Forecast

×

Almanac

Astronomy

Aug. 31, 2015 Rise Set
Actual Time
Civil Twilight
Nautical Twilight
Astronomical Twilight
Moon
Length of Visible Light
Length of Day
Tomorrow will be .
, % of the Moon is Illuminated

Today's Extremes

State Highs State Lows

Community

WunderPhotos

Upload Photos

1,851,411 photos uploaded!

WunderBlogs® & News

Nearby

Air Quality

  Air Quality AQ Index Pollutant
Not available.

Snow Depth

Station Depth Elevation

Earthquake Activity

City Distance Mag. Time & Date
Minimum magnitude displayed is 2.5.

Coastal Water Temperatures

Place Temperature

Stations

Nearby Weather Stations

Station Location Temp. Windchill Dew Point Humidity Wind Precip. Elev Updated Type